createdAt,value
2024-04-24T00:02:09.713Z,100884.72
2024-04-24T00:04:37.138Z,100866.41
2024-04-24T00:07:04.567Z,100854.63
2024-04-24T00:09:32.379Z,100843.47
2024-04-24T00:11:59.692Z,100851.50
2024-04-24T00:14:28.804Z,100842.00
2024-04-24T00:16:56.294Z,100843.09
2024-04-24T00:19:23.630Z,100846.94
2024-04-24T00:21:50.933Z,100839.84
2024-04-24T00:24:20.601Z,100848.50
2024-04-24T00:26:48.016Z,100826.59
2024-04-24T00:29:15.744Z,100842.22
2024-04-24T00:31:42.965Z,100846.91
2024-04-24T00:34:10.331Z,100846.94
2024-04-24T00:36:37.717Z,100840.81
2024-04-24T00:39:05.208Z,100822.09
2024-04-24T00:41:32.830Z,100806.78
2024-04-24T00:44:00.365Z,100821.19
2024-04-24T00:46:28.696Z,100831.28
2024-04-24T00:48:56.869Z,100815.44
2024-04-24T00:51:24.697Z,100809.56
2024-04-24T00:53:52.296Z,100800.59
2024-04-24T00:56:19.755Z,100801.56
2024-04-24T00:58:47.197Z,100802.56
2024-04-24T01:01:14.929Z,100774.16
2024-04-24T01:03:42.563Z,100785.69
2024-04-24T01:06:09.963Z,100777.25
2024-04-24T01:08:37.397Z,100768.72
2024-04-24T01:11:04.943Z,100766.75
2024-04-24T01:13:32.528Z,100755.06
2024-04-24T01:16:19.148Z,100746.97
2024-04-24T01:18:50.442Z,100751.47
2024-04-24T01:21:17.967Z,100750.06
2024-04-24T01:23:59.998Z,100752.22
2024-04-24T01:26:51.968Z,100764.53
2024-04-24T01:29:19.660Z,100768.03
2024-04-24T01:31:47.131Z,100760.56
2024-04-24T01:34:14.601Z,100741.88
2024-04-24T01:36:41.876Z,100761.16
2024-04-24T01:39:09.211Z,100758.56
2024-04-24T01:41:36.451Z,100753.28
2024-04-24T01:44:04.056Z,100755.44
2024-04-24T01:46:31.461Z,100751.59
2024-04-24T01:48:58.953Z,100754.09
2024-04-24T01:51:26.307Z,100748.28
2024-04-24T01:53:56.665Z,100745.50
2024-04-24T01:56:24.067Z,100743.78
2024-04-24T01:58:51.813Z,100731.41
2024-04-24T02:01:19.305Z,100728.66
2024-04-24T02:03:46.611Z,100737.31
2024-04-24T02:06:13.986Z,100732.53
2024-04-24T02:08:41.251Z,100702.44
2024-04-24T02:11:08.733Z,100726.44
2024-04-24T02:13:36.144Z,100730.84
2024-04-24T02:16:03.571Z,100738.84
2024-04-24T02:18:30.985Z,100712.38
2024-04-24T02:20:58.390Z,100715.19
2024-04-24T02:23:32.674Z,100710.75
2024-04-24T02:26:00.305Z,100697.53
2024-04-24T02:28:27.653Z,100699.84
2024-04-24T02:30:55.007Z,100695.16
2024-04-24T02:33:22.350Z,100705.44
2024-04-24T02:35:49.732Z,100701.50
2024-04-24T02:38:17.362Z,100698.16
2024-04-24T02:40:44.721Z,100692.06
2024-04-24T02:43:11.971Z,100686.75
2024-04-24T02:45:39.408Z,100693.06
2024-04-24T02:48:07.879Z,100691.41
2024-04-24T02:50:35.550Z,100730.44
2024-04-24T02:53:02.936Z,100698.03
2024-04-24T02:55:30.435Z,100705.78
2024-04-24T02:57:57.703Z,100704.22
2024-04-24T03:00:25.227Z,100698.31
2024-04-24T03:02:52.688Z,100707.44
2024-04-24T03:05:20.275Z,100681.50
2024-04-24T03:07:47.758Z,100690.75
2024-04-24T03:10:15.258Z,100681.72
2024-04-24T03:12:42.925Z,100692.31
2024-04-24T03:15:10.439Z,100687.75
2024-04-24T03:17:40.234Z,100684.13
2024-04-24T03:20:08.363Z,100684.69
2024-04-24T03:22:35.756Z,100683.13
2024-04-24T03:25:03.074Z,100684.53
2024-04-24T03:27:30.569Z,100668.41
2024-04-24T03:29:57.915Z,100683.75
2024-04-24T03:32:25.272Z,100684.50
2024-04-24T03:34:52.682Z,100669.88
2024-04-24T03:37:20.065Z,100676.75
2024-04-24T03:39:47.602Z,100663.91
2024-04-24T03:42:14.877Z,100647.53
2024-04-24T03:44:42.268Z,100659.00
2024-04-24T03:47:09.734Z,100668.09
2024-04-24T03:49:37.207Z,100662.81
2024-04-24T03:52:04.638Z,100647.28
2024-04-24T03:54:32.356Z,100662.00
2024-04-24T03:56:59.681Z,100675.72
2024-04-24T03:59:27.195Z,100664.03
2024-04-24T04:01:54.510Z,100659.88
2024-04-24T04:04:22.002Z,100662.97
2024-04-24T04:06:49.564Z,100666.59
2024-04-24T04:09:16.955Z,100660.97
2024-04-24T04:11:44.758Z,100663.22
2024-04-24T04:14:12.601Z,100649.31
2024-04-24T04:16:40.472Z,100656.84
2024-04-24T04:19:08.222Z,100652.13
2024-04-24T04:21:35.960Z,100659.53
2024-04-24T04:24:03.882Z,100655.22
2024-04-24T04:26:31.666Z,100660.25
2024-04-24T04:28:59.056Z,100677.59
2024-04-24T04:31:26.455Z,100683.34
2024-04-24T04:33:54.326Z,100687.56
2024-04-24T04:36:22.020Z,100670.34
2024-04-24T04:38:49.396Z,100673.13
2024-04-24T04:41:16.840Z,100655.31
2024-04-24T04:43:44.206Z,100655.94
2024-04-24T04:46:11.960Z,100671.22
2024-04-24T04:48:39.858Z,100668.72
2024-04-24T04:51:07.298Z,100675.75
2024-04-24T04:53:35.158Z,100675.97
2024-04-24T04:56:02.525Z,100665.69
2024-04-24T04:58:30.107Z,100679.38
2024-04-24T05:00:57.811Z,100677.38
2024-04-24T05:03:25.744Z,100682.03
2024-04-24T05:05:54.439Z,100680.53
2024-04-24T05:08:21.972Z,100686.44
2024-04-24T05:10:49.421Z,100686.44
2024-04-24T05:13:17.929Z,100674.94
2024-04-24T05:15:45.230Z,100660.75
2024-04-24T05:18:14.399Z,100667.63
2024-04-24T05:20:41.893Z,100666.91
2024-04-24T05:23:09.352Z,100652.91
2024-04-24T05:25:38.333Z,100655.28
2024-04-24T05:28:28.091Z,100648.38
2024-04-24T05:30:55.513Z,100638.59
2024-04-24T05:33:23.011Z,100642.81
2024-04-24T05:35:50.529Z,100634.47
2024-04-24T05:38:17.923Z,100626.63
2024-04-24T05:40:45.380Z,100620.75
2024-04-24T05:43:15.309Z,100595.28
2024-04-24T05:45:44.542Z,100615.94
2024-04-24T05:48:12.129Z,100604.25
2024-04-24T05:50:39.661Z,100589.81
2024-04-24T05:53:07.093Z,100590.22
2024-04-24T05:55:34.570Z,100597.53
2024-04-24T05:58:01.917Z,100574.06
2024-04-24T06:00:29.607Z,100576.69
2024-04-24T06:02:58.212Z,100581.47
2024-04-24T06:05:25.688Z,100582.00
2024-04-24T06:07:53.178Z,100578.50
2024-04-24T06:10:20.662Z,100552.81
2024-04-24T06:12:48.086Z,100566.56
2024-04-24T06:15:15.720Z,100580.88
2024-04-24T06:17:43.298Z,100567.25
2024-04-24T06:20:16.384Z,100554.06
2024-04-24T06:22:44.538Z,100547.91
2024-04-24T06:25:12.071Z,100557.09
2024-04-24T06:27:39.598Z,100551.44
2024-04-24T06:30:07.348Z,100543.88
2024-04-24T06:32:35.323Z,100542.03
2024-04-24T06:35:04.403Z,100530.09
2024-04-24T06:37:31.962Z,100539.25
2024-04-24T06:39:59.296Z,100532.28
2024-04-24T06:42:26.744Z,100538.63
2024-04-24T06:44:54.115Z,100552.94
2024-04-24T06:47:21.648Z,100547.00
2024-04-24T06:49:49.121Z,100541.22
2024-04-24T06:52:16.540Z,100539.31
2024-04-24T06:54:43.895Z,100554.09
2024-04-24T06:57:13.182Z,100532.00
2024-04-24T06:59:40.539Z,100537.94
2024-04-24T07:02:08.039Z,100540.19
2024-04-24T07:04:35.499Z,100527.13
2024-04-24T07:07:02.914Z,100532.69
2024-04-24T07:09:30.403Z,100514.16
2024-04-24T07:11:58.124Z,100515.22
2024-04-24T07:14:25.595Z,100501.59
2024-04-24T07:16:53.270Z,100512.19
2024-04-24T07:19:20.589Z,100499.97
2024-04-24T07:21:47.943Z,100501.16
2024-04-24T07:24:15.280Z,100501.63
2024-04-24T07:26:45.553Z,100497.25
2024-04-24T07:29:12.978Z,100487.50
2024-04-24T07:31:41.367Z,100489.72
2024-04-24T07:34:09.007Z,100491.94
2024-04-24T07:36:36.526Z,100460.16
2024-04-24T07:39:04.144Z,100471.66
2024-04-24T07:41:31.607Z,100452.75
2024-04-24T07:43:59.147Z,100453.31
2024-04-24T07:46:28.126Z,100431.28
2024-04-24T07:48:55.632Z,100422.94
2024-04-24T07:51:23.164Z,100429.91
2024-04-24T07:53:50.769Z,100425.44
2024-04-24T07:56:18.246Z,100411.50
2024-04-24T07:58:45.775Z,100407.34
2024-04-24T08:01:13.235Z,100400.91
2024-04-24T08:03:40.837Z,100394.50
2024-04-24T08:06:09.023Z,100392.81
2024-04-24T08:08:40.016Z,100376.41
2024-04-24T08:11:07.610Z,100374.69
2024-04-24T08:13:35.020Z,100375.47
2024-04-24T08:16:02.772Z,100366.00
2024-04-24T08:18:30.483Z,100350.09
2024-04-24T08:20:58.115Z,100355.16
2024-04-24T08:23:27.060Z,100340.38
2024-04-24T08:25:55.451Z,100329.44
2024-04-24T08:28:33.150Z,100348.16
2024-04-24T08:31:07.877Z,100346.78
2024-04-24T08:33:35.688Z,100335.06
2024-04-24T08:36:04.678Z,100324.72
2024-04-24T08:38:32.592Z,100317.09
2024-04-24T08:41:10.699Z,100320.81
2024-04-24T08:43:42.762Z,100309.22
2024-04-24T08:46:13.870Z,100306.31
2024-04-24T08:48:42.404Z,100318.31
2024-04-24T08:51:10.900Z,100295.91
2024-04-24T08:53:43.424Z,100290.78
2024-04-24T08:56:12.890Z,100273.50
2024-04-24T08:58:40.546Z,100276.00
2024-04-24T09:01:14.676Z,100268.94
2024-04-24T09:03:43.539Z,100270.63
2024-04-24T09:06:11.364Z,100267.50
2024-04-24T09:08:39.006Z,100255.16
2024-04-24T09:11:08.069Z,100260.56
2024-04-24T09:13:35.601Z,100247.50
2024-04-24T09:16:03.405Z,100251.69
2024-04-24T09:18:31.197Z,100234.28
2024-04-24T09:20:58.723Z,100234.53
2024-04-24T09:23:26.513Z,100234.56
2024-04-24T09:25:54.091Z,100227.75
2024-04-24T09:28:21.582Z,100207.47
2024-04-24T09:30:52.266Z,100214.41
2024-04-24T09:33:19.993Z,100210.38
2024-04-24T09:35:47.511Z,100195.63
2024-04-24T09:38:15.000Z,100190.53
2024-04-24T09:40:42.570Z,100200.94
2024-04-24T09:43:10.034Z,100200.22
2024-04-24T09:45:37.474Z,100196.72
2024-04-24T09:48:06.497Z,100191.22
2024-04-24T09:50:35.182Z,100160.38
2024-04-24T09:53:02.937Z,100172.72
2024-04-24T09:55:31.544Z,100154.00
2024-04-24T09:57:59.147Z,100157.53
2024-04-24T10:00:26.475Z,100165.94
2024-04-24T10:02:54.082Z,100168.06
2024-04-24T10:05:30.014Z,100132.66
2024-04-24T10:08:05.203Z,100157.94
2024-04-24T10:10:43.323Z,100170.72
2024-04-24T10:13:11.054Z,100128.56
2024-04-24T10:15:41.808Z,100122.16
2024-04-24T10:18:10.242Z,100117.66
2024-04-24T10:20:41.753Z,100129.09
2024-04-24T10:23:09.315Z,100099.97
2024-04-24T10:25:36.841Z,100082.38
2024-04-24T10:28:04.595Z,100082.50
2024-04-24T10:30:32.236Z,100087.94
2024-04-24T10:32:59.832Z,100057.34
2024-04-24T10:35:28.964Z,100087.19
2024-04-24T10:37:59.652Z,100072.19
2024-04-24T10:40:32.875Z,100071.03
2024-04-24T10:43:00.937Z,100086.44
2024-04-24T10:45:28.756Z,100060.53
2024-04-24T10:47:57.213Z,100058.59
2024-04-24T10:50:27.962Z,100064.69
2024-04-24T10:52:57.027Z,100055.03
2024-04-24T10:55:24.522Z,100029.16
2024-04-24T10:57:53.886Z,100047.00
2024-04-24T11:00:22.463Z,100043.69
2024-04-24T11:02:55.930Z,100033.69
2024-04-24T11:05:26.220Z,100040.38
2024-04-24T11:08:00.923Z,100022.38
2024-04-24T11:10:32.059Z,100037.06
2024-04-24T11:12:59.720Z,100023.09
2024-04-24T11:15:28.173Z,100023.22
2024-04-24T11:17:55.766Z,100014.19
2024-04-24T11:20:24.046Z,100011.66
2024-04-24T11:22:51.678Z,99985.81
2024-04-24T11:25:19.026Z,100001.72
2024-04-24T11:27:46.588Z,100008.13
2024-04-24T11:30:17.812Z,100015.47
2024-04-24T11:32:52.727Z,100033.50
2024-04-24T11:35:22.574Z,100014.88
2024-04-24T11:37:50.691Z,99992.69
2024-04-24T11:40:18.096Z,99973.53
2024-04-24T11:42:52.107Z,99975.78
2024-04-24T11:45:22.899Z,99955.97
2024-04-24T11:47:52.294Z,99941.47
2024-04-24T11:50:20.473Z,99939.88
2024-04-24T11:52:48.233Z,99907.78
2024-04-24T11:55:16.260Z,99864.09
2024-04-24T11:57:45.058Z,99890.25
2024-04-24T12:00:13.006Z,99898.34
2024-04-24T12:02:40.799Z,99919.34
2024-04-24T12:05:09.100Z,99934.91
2024-04-24T12:07:42.344Z,99898.00
2024-04-24T12:10:09.868Z,99873.38
2024-04-24T12:12:37.381Z,99879.78
2024-04-24T12:15:05.237Z,99883.25
2024-04-24T12:17:33.074Z,99869.88
2024-04-24T12:20:00.627Z,99906.75
2024-04-24T12:22:27.997Z,99893.69
2024-04-24T12:24:55.457Z,99862.75
2024-04-24T12:27:22.842Z,99799.41
2024-04-24T12:29:50.428Z,99804.84
2024-04-24T12:32:17.967Z,99812.78
2024-04-24T12:34:45.634Z,99791.28
2024-04-24T12:37:13.082Z,99794.09
2024-04-24T12:39:40.751Z,99843.72
2024-04-24T12:42:08.410Z,99829.16
2024-04-24T12:44:35.835Z,99816.47
2024-04-24T12:47:03.240Z,99828.38
2024-04-24T12:49:30.848Z,99848.47
2024-04-24T12:51:58.298Z,99811.41
2024-04-24T12:54:25.692Z,99827.31
2024-04-24T12:56:53.145Z,99791.34
2024-04-24T12:59:20.677Z,99822.97
2024-04-24T13:01:48.085Z,99790.00
2024-04-24T13:04:15.864Z,99781.41
2024-04-24T13:06:43.350Z,99791.78
2024-04-24T13:09:10.905Z,99769.44
2024-04-24T13:11:38.388Z,99757.84
2024-04-24T13:14:06.009Z,99777.56
2024-04-24T13:16:33.424Z,99772.09
2024-04-24T13:19:01.044Z,99767.28
2024-04-24T13:21:28.519Z,99739.78
2024-04-24T13:23:56.016Z,99753.22
2024-04-24T13:26:23.492Z,99761.81
2024-04-24T13:28:51.030Z,99729.13
2024-04-24T13:31:18.406Z,99751.81
2024-04-24T13:33:46.177Z,99772.13
2024-04-24T13:36:13.710Z,99744.78
2024-04-24T13:38:41.369Z,99740.94
2024-04-24T13:41:08.729Z,99738.47
2024-04-24T13:43:36.507Z,99728.13
2024-04-24T13:46:05.064Z,99737.84
2024-04-24T13:48:33.563Z,99764.50
2024-04-24T13:51:01.675Z,99776.41
2024-04-24T13:53:29.251Z,99768.78
2024-04-24T13:55:57.310Z,99726.34
2024-04-24T13:58:24.899Z,99739.63
2024-04-24T14:00:52.359Z,99731.16
2024-04-24T14:03:20.021Z,99748.56
2024-04-24T14:05:50.862Z,99726.91
2024-04-24T14:08:18.513Z,99743.63
2024-04-24T14:10:46.125Z,99782.81
2024-04-24T14:13:13.729Z,99801.34
2024-04-24T14:15:41.451Z,99752.75
2024-04-24T14:18:09.010Z,99727.88
2024-04-24T14:20:36.754Z,99767.31
2024-04-24T14:23:04.360Z,99722.94
2024-04-24T14:25:34.779Z,99732.09
2024-04-24T14:28:02.848Z,99711.25
2024-04-24T14:30:30.406Z,99729.72
2024-04-24T14:32:58.091Z,99724.56
2024-04-24T14:35:25.618Z,99725.97
2024-04-24T14:37:54.025Z,99724.53
2024-04-24T14:40:21.473Z,99716.59
2024-04-24T14:42:49.183Z,99752.84
2024-04-24T14:45:16.586Z,99693.69
2024-04-24T14:47:45.003Z,99709.47
2024-04-24T14:50:12.618Z,99706.44
2024-04-24T14:52:40.201Z,99716.28
2024-04-24T14:55:07.941Z,99710.13
2024-04-24T14:57:35.461Z,99700.19
2024-04-24T15:00:03.191Z,99715.47
2024-04-24T15:02:32.281Z,99702.81
2024-04-24T15:04:59.866Z,99697.66
2024-04-24T15:07:27.388Z,99704.81
2024-04-24T15:09:55.682Z,99723.69
2024-04-24T15:12:23.198Z,99711.13
2024-04-24T15:14:52.254Z,99731.69
2024-04-24T15:17:19.923Z,99704.97
2024-04-24T15:19:47.441Z,99703.03
2024-04-24T15:22:14.991Z,99697.22
2024-04-24T15:24:42.542Z,99711.84
2024-04-24T15:27:09.990Z,99716.53
2024-04-24T15:29:37.405Z,99706.59
2024-04-24T15:32:05.328Z,99705.28
2024-04-24T15:34:33.671Z,99716.53
2024-04-24T15:37:01.202Z,99704.31
2024-04-24T15:39:28.679Z,99695.91
2024-04-24T15:41:56.956Z,99673.22
2024-04-24T15:44:24.256Z,99671.16
2024-04-24T15:46:51.708Z,99676.72
2024-04-24T15:49:19.485Z,99694.47
2024-04-24T15:51:47.455Z,99696.47
2024-04-24T15:54:14.968Z,99701.31
2024-04-24T15:56:42.356Z,99689.06
2024-04-24T15:59:09.684Z,99685.25
2024-04-24T16:01:37.192Z,99665.78
2024-04-24T16:04:04.683Z,99666.94
2024-04-24T16:06:32.192Z,99656.53
2024-04-24T16:09:00.031Z,99661.78
2024-04-24T16:11:27.579Z,99680.06
2024-04-24T16:13:55.069Z,99649.59
2024-04-24T16:16:22.466Z,99669.13
2024-04-24T16:18:51.686Z,99670.31
2024-04-24T16:21:19.838Z,99662.56
2024-04-24T16:23:47.181Z,99657.88
2024-04-24T16:26:16.145Z,99661.88
2024-04-24T16:28:43.817Z,99649.50
2024-04-24T16:31:12.022Z,99673.81
2024-04-24T16:33:39.557Z,99664.88
2024-04-24T16:36:11.707Z,99680.44
2024-04-24T16:38:39.183Z,99686.22
2024-04-24T16:41:08.085Z,99682.09
2024-04-24T16:43:35.497Z,99662.91
2024-04-24T16:46:02.843Z,99663.91
2024-04-24T16:48:31.551Z,99655.47
2024-04-24T16:50:58.965Z,99652.88
2024-04-24T16:53:26.626Z,99661.31
2024-04-24T16:55:54.266Z,99657.47
2024-04-24T16:58:21.708Z,99645.78
2024-04-24T17:00:49.280Z,99657.81
2024-04-24T17:03:16.950Z,99650.56
2024-04-24T17:05:44.446Z,99667.44
2024-04-24T17:08:11.965Z,99651.09
2024-04-24T17:10:39.656Z,99652.22
2024-04-24T17:13:07.134Z,99659.69
2024-04-24T17:15:34.549Z,99662.34
2024-04-24T17:18:02.223Z,99637.38
2024-04-24T17:20:29.760Z,99642.03
2024-04-24T17:22:57.379Z,99642.19
2024-04-24T17:25:24.824Z,99629.44
2024-04-24T17:27:52.233Z,99640.22
2024-04-24T17:30:19.545Z,99653.78
2024-04-24T17:32:47.089Z,99644.19
2024-04-24T17:35:14.817Z,99642.38
2024-04-24T17:37:43.198Z,99639.91
2024-04-24T17:40:12.209Z,99645.38
2024-04-24T17:42:40.103Z,99621.25
2024-04-24T17:45:08.214Z,99633.47
2024-04-24T17:47:35.915Z,99610.66
2024-04-24T17:50:04.400Z,99621.38
2024-04-24T17:52:32.757Z,99617.94
2024-04-24T17:55:00.233Z,99630.97
2024-04-24T17:57:31.252Z,99631.47
2024-04-24T17:59:59.433Z,99628.84
2024-04-24T18:02:26.879Z,99624.22
2024-04-24T18:04:55.728Z,99625.19
2024-04-24T18:07:23.076Z,99624.88
2024-04-24T18:09:50.616Z,99627.34
2024-04-24T18:12:18.032Z,99591.19
2024-04-24T18:14:45.906Z,99623.41
2024-04-24T18:17:14.448Z,99623.53
2024-04-24T18:19:41.988Z,99616.47
2024-04-24T18:22:09.532Z,99605.69
2024-04-24T18:24:37.253Z,99630.81
2024-04-24T18:27:04.640Z,99653.28
2024-04-24T18:29:32.395Z,99660.19
2024-04-24T18:32:00.160Z,99661.38
2024-04-24T18:34:27.674Z,99656.06
2024-04-24T18:36:55.340Z,99654.41
2024-04-24T18:39:22.858Z,99664.31
2024-04-24T18:41:50.500Z,99668.75
2024-04-24T18:44:18.087Z,99682.94
2024-04-24T18:46:45.487Z,99693.97
2024-04-24T18:49:12.962Z,99677.97
2024-04-24T18:51:40.423Z,99700.56
2024-04-24T18:54:10.140Z,99671.44
2024-04-24T18:56:37.692Z,99691.25
2024-04-24T18:59:05.017Z,99685.97
2024-04-24T19:01:32.456Z,99687.63
2024-04-24T19:04:01.190Z,99688.28
2024-04-24T19:06:33.391Z,99703.44
2024-04-24T19:09:01.636Z,99691.56
2024-04-24T19:11:29.167Z,99697.47
2024-04-24T19:13:58.999Z,99696.97
2024-04-24T19:16:26.605Z,99706.53
2024-04-24T19:18:54.101Z,99704.38
2024-04-24T19:21:21.684Z,99698.97
2024-04-24T19:23:49.053Z,99706.53
2024-04-24T19:26:16.694Z,99699.41
2024-04-24T19:28:44.197Z,99716.59
2024-04-24T19:31:23.325Z,99709.34
2024-04-24T19:33:55.263Z,99706.81
2024-04-24T19:36:22.749Z,99720.56
2024-04-24T19:38:50.177Z,99691.78
2024-04-24T19:41:17.579Z,99717.88
2024-04-24T19:43:45.120Z,99706.50
2024-04-24T19:46:12.560Z,99716.09
2024-04-24T19:48:40.033Z,99716.44
2024-04-24T19:51:08.269Z,99730.78
2024-04-24T19:53:35.987Z,99726.69
2024-04-24T19:56:06.854Z,99727.66
2024-04-24T19:58:34.326Z,99717.75
2024-04-24T20:01:09.185Z,99724.50
2024-04-24T20:03:37.614Z,99738.69
2024-04-24T20:06:06.301Z,99726.13
2024-04-24T20:08:34.193Z,99734.91
2024-04-24T20:11:05.218Z,99721.28
2024-04-24T20:13:32.997Z,99713.03
2024-04-24T20:16:07.067Z,99719.00
2024-04-24T20:18:35.732Z,99730.72
2024-04-24T20:21:03.810Z,99730.03
2024-04-24T20:23:31.394Z,99724.88
2024-04-24T20:25:58.750Z,99726.22
2024-04-24T20:28:26.176Z,99733.63
2024-04-24T20:30:53.520Z,99742.69
2024-04-24T20:33:24.326Z,99734.25
2024-04-24T20:35:51.987Z,99755.28
2024-04-24T20:38:19.461Z,99743.75
2024-04-24T20:40:46.961Z,99767.84
2024-04-24T20:43:15.068Z,99746.91
2024-04-24T20:45:42.510Z,99757.69
2024-04-24T20:48:10.019Z,99753.75
2024-04-24T20:50:37.584Z,99724.66
2024-04-24T20:53:08.407Z,99732.09
2024-04-24T20:55:37.427Z,99742.78
2024-04-24T20:58:05.059Z,99744.78
2024-04-24T21:00:34.371Z,99744.19
2024-04-24T21:03:01.856Z,99762.75
2024-04-24T21:05:29.477Z,99748.56
2024-04-24T21:07:56.850Z,99748.16
2024-04-24T21:10:24.384Z,99753.09
2024-04-24T21:12:51.786Z,99761.00
2024-04-24T21:15:19.252Z,99753.84
2024-04-24T21:17:46.781Z,99742.06
2024-04-24T21:20:14.276Z,99764.19
2024-04-24T21:22:41.647Z,99766.75
2024-04-24T21:25:09.146Z,99764.47
2024-04-24T21:27:36.816Z,99766.94
2024-04-24T21:30:05.880Z,99761.88
2024-04-24T21:32:33.716Z,99777.47
2024-04-24T21:35:01.377Z,99779.97
2024-04-24T21:37:34.545Z,99777.47
2024-04-24T21:40:03.437Z,99771.88
2024-04-24T21:42:30.965Z,99768.34
2024-04-24T21:44:58.323Z,99775.41
2024-04-24T21:47:25.651Z,99776.44
2024-04-24T21:49:53.381Z,99761.41
2024-04-24T21:52:20.693Z,99763.41
2024-04-24T21:54:48.171Z,99751.25
2024-04-24T21:57:15.435Z,99765.56
2024-04-24T21:59:42.966Z,99758.22
2024-04-24T22:02:10.553Z,99761.25
2024-04-24T22:04:41.068Z,99763.94
2024-04-24T22:07:08.550Z,99763.72
2024-04-24T22:09:35.905Z,99761.66
2024-04-24T22:12:03.473Z,99751.50
2024-04-24T22:14:30.996Z,99751.50
2024-04-24T22:17:00.771Z,99739.19
2024-04-24T22:19:31.288Z,99758.44
2024-04-24T22:21:58.580Z,99758.94
2024-04-24T22:24:25.908Z,99761.13
2024-04-24T22:26:53.263Z,99762.38
2024-04-24T22:29:20.808Z,99752.75
2024-04-24T22:32:13.895Z,99765.69
2024-04-24T22:34:41.374Z,99769.13
2024-04-24T22:37:08.776Z,99768.47
2024-04-24T22:39:36.439Z,99759.88
2024-04-24T22:42:04.994Z,99777.72
2024-04-24T22:44:32.661Z,99769.72
2024-04-24T22:47:00.031Z,99767.56
2024-04-24T22:49:27.439Z,99776.88
2024-04-24T22:51:54.747Z,99765.59
2024-04-24T22:54:22.073Z,99768.50
2024-04-24T22:56:49.417Z,99774.91
2024-04-24T22:59:17.396Z,99759.06
2024-04-24T23:01:45.729Z,99775.56
2024-04-24T23:04:13.088Z,99765.19
2024-04-24T23:06:40.413Z,99766.91
2024-04-24T23:09:07.870Z,99775.47
2024-04-24T23:11:35.325Z,99765.44
2024-04-24T23:14:02.874Z,99774.47
2024-04-24T23:16:30.511Z,99763.69
2024-04-24T23:19:22.946Z,99767.41
2024-04-24T23:21:50.367Z,99778.47
2024-04-24T23:24:17.758Z,99784.38
2024-04-24T23:26:49.176Z,99779.94
2024-04-24T23:29:16.750Z,99789.56
2024-04-24T23:31:44.155Z,99802.03
2024-04-24T23:34:11.670Z,99794.75
2024-04-24T23:36:38.982Z,99788.00
2024-04-24T23:39:06.432Z,99790.88
2024-04-24T23:41:33.736Z,99795.56
2024-04-24T23:44:01.478Z,99788.38
2024-04-24T23:46:28.831Z,99801.75
2024-04-24T23:48:56.273Z,99800.50
2024-04-24T23:51:23.597Z,99803.00
2024-04-24T23:53:50.937Z,99814.00
2024-04-24T23:56:18.242Z,99808.50
2024-04-24T23:58:45.764Z,99822.66
